createdAt,value
2018-01-21T00:01:58.582Z,71.00
2018-01-21T00:04:26.881Z,70.90
2018-01-21T00:06:55.132Z,70.60
2018-01-21T00:09:23.446Z,70.40
2018-01-21T00:11:51.760Z,70.60
2018-01-21T00:14:20.765Z,70.40
2018-01-21T00:16:49.838Z,70.20
2018-01-21T00:19:18.117Z,70.20
2018-01-21T00:21:46.359Z,70.40
2018-01-21T00:24:14.597Z,70.50
2018-01-21T00:26:42.900Z,70.40
2018-01-21T00:29:11.186Z,70.20
2018-01-21T00:31:39.447Z,70.10
2018-01-21T00:34:07.752Z,70.00
2018-01-21T00:36:35.991Z,69.80
2018-01-21T00:39:04.291Z,70.20
2018-01-21T00:41:32.580Z,70.30
2018-01-21T00:44:00.880Z,70.50
2018-01-21T00:46:29.115Z,70.60
2018-01-21T00:48:57.402Z,70.80
2018-01-21T00:51:25.677Z,70.80
2018-01-21T00:53:53.979Z,70.70
2018-01-21T00:56:22.252Z,70.70
2018-01-21T00:58:51.274Z,70.30
2018-01-21T01:01:19.538Z,70.30
2018-01-21T01:03:47.826Z,70.80
2018-01-21T01:06:16.066Z,71.10
2018-01-21T01:08:44.367Z,71.20
2018-01-21T01:11:12.616Z,71.10
2018-01-21T01:13:40.864Z,71.10
2018-01-21T01:16:09.108Z,71.20
2018-01-21T01:18:38.124Z,71.00
2018-01-21T01:21:06.368Z,71.00
2018-01-21T01:23:34.678Z,71.20
2018-01-21T01:26:03.677Z,71.40
2018-01-21T01:28:31.971Z,71.40
2018-01-21T01:31:00.220Z,71.20
2018-01-21T01:33:29.266Z,71.40
2018-01-21T01:35:57.554Z,71.40
2018-01-21T01:38:25.793Z,71.40
2018-01-21T01:40:54.965Z,71.30
2018-01-21T01:43:23.984Z,71.60
2018-01-21T01:45:52.273Z,71.40
2018-01-21T01:48:20.577Z,71.60
2018-01-21T01:50:48.822Z,71.60
2018-01-21T01:53:17.367Z,71.20
2018-01-21T01:55:45.603Z,71.20
2018-01-21T01:58:13.888Z,70.80
2018-01-21T02:00:42.157Z,71.10
2018-01-21T02:03:10.434Z,70.80
2018-01-21T02:05:38.708Z,70.70
2018-01-21T02:08:07.022Z,70.50
2018-01-21T02:10:35.314Z,70.50
2018-01-21T02:13:04.332Z,70.90
2018-01-21T02:15:32.616Z,70.90
2018-01-21T02:18:00.855Z,70.70
2018-01-21T02:20:29.927Z,70.60
2018-01-21T02:22:58.161Z,70.60
2018-01-21T02:25:26.480Z,70.80
2018-01-21T02:27:54.768Z,70.90
2018-01-21T02:30:23.043Z,70.90
2018-01-21T02:32:51.390Z,70.90
2018-01-21T02:35:19.639Z,71.20
2018-01-21T02:37:47.883Z,71.20
2018-01-21T02:40:16.134Z,71.10
2018-01-21T02:42:44.434Z,71.20
2018-01-21T02:45:13.605Z,71.40
2018-01-21T02:47:41.875Z,71.50
2018-01-21T02:50:10.114Z,71.40
2018-01-21T02:52:38.416Z,71.30
2018-01-21T02:55:06.661Z,71.10
2018-01-21T02:57:35.736Z,71.30
2018-01-21T03:00:04.012Z,71.30
2018-01-21T03:02:32.244Z,71.10
2018-01-21T03:05:00.514Z,71.40
2018-01-21T03:07:28.808Z,71.40
2018-01-21T03:09:57.128Z,70.90
2018-01-21T03:12:25.382Z,71.20
2018-01-21T03:14:53.671Z,71.00
2018-01-21T03:17:21.935Z,71.20
2018-01-21T03:19:50.229Z,71.10
2018-01-21T03:22:18.516Z,71.40
2018-01-21T03:24:47.583Z,70.70
2018-01-21T03:27:16.612Z,71.00
2018-01-21T03:29:45.627Z,71.20
2018-01-21T03:32:14.753Z,71.20
2018-01-21T03:34:43.005Z,70.80
2018-01-21T03:37:11.250Z,71.10
2018-01-21T03:39:40.263Z,71.20
2018-01-21T03:42:08.577Z,71.20
2018-01-21T03:44:36.853Z,70.90
2018-01-21T03:47:05.099Z,71.10
2018-01-21T03:49:33.335Z,70.80
2018-01-21T03:52:01.586Z,71.00
2018-01-21T03:54:29.880Z,71.30
2018-01-21T03:56:58.121Z,71.00
2018-01-21T03:59:26.382Z,71.20
2018-01-21T04:01:54.677Z,71.20
2018-01-21T04:04:22.924Z,71.30
2018-01-21T04:06:52.024Z,71.00
2018-01-21T04:09:20.227Z,71.00
2018-01-21T04:11:48.531Z,70.90
2018-01-21T04:14:16.775Z,71.30
2018-01-21T04:16:45.012Z,71.00
2018-01-21T04:19:14.075Z,71.10
2018-01-21T04:21:42.320Z,70.80
2018-01-21T04:24:10.593Z,70.80
2018-01-21T04:26:38.847Z,70.80
2018-01-21T04:29:07.898Z,70.90
2018-01-21T04:31:36.151Z,70.90
2018-01-21T04:34:04.637Z,70.90
2018-01-21T04:36:32.906Z,70.90
2018-01-21T04:39:01.248Z,70.60
2018-01-21T04:41:29.496Z,71.20
2018-01-21T04:43:57.788Z,71.20
2018-01-21T04:46:26.045Z,71.10
2018-01-21T04:48:54.342Z,71.10
2018-01-21T04:51:22.623Z,71.20
2018-01-21T04:53:50.860Z,71.00
2018-01-21T04:56:19.111Z,71.10
2018-01-21T04:58:47.350Z,70.80
2018-01-21T05:01:15.626Z,71.10
2018-01-21T05:03:43.891Z,71.30
2018-01-21T05:06:12.164Z,71.00
2018-01-21T05:08:40.420Z,71.10
2018-01-21T05:11:08.704Z,71.30
2018-01-21T05:13:37.001Z,71.00
2018-01-21T05:16:05.246Z,71.00
2018-01-21T05:18:33.493Z,71.20
2018-01-21T05:21:01.812Z,71.10
2018-01-21T05:23:30.103Z,71.00
2018-01-21T05:25:58.356Z,70.90
2018-01-21T05:28:26.609Z,71.10
2018-01-21T05:30:54.840Z,71.10
2018-01-21T05:33:23.171Z,71.10
2018-01-21T05:35:51.421Z,71.20
2018-01-21T05:38:19.715Z,71.10
2018-01-21T05:40:48.009Z,71.40
2018-01-21T05:43:16.282Z,71.10
2018-01-21T05:45:44.536Z,71.60
2018-01-21T05:48:13.832Z,71.30
2018-01-21T05:50:42.126Z,71.20
2018-01-21T05:53:11.159Z,71.40
2018-01-21T05:55:39.713Z,71.40
2018-01-21T05:58:07.958Z,71.20
2018-01-21T06:00:37.008Z,71.10
2018-01-21T06:03:05.304Z,71.80
2018-01-21T06:05:33.552Z,71.10
2018-01-21T06:08:01.828Z,70.70
2018-01-21T06:10:30.132Z,71.40
2018-01-21T06:12:58.412Z,70.80
2018-01-21T06:15:26.699Z,70.90
2018-01-21T06:17:54.979Z,70.70
2018-01-21T06:20:23.224Z,71.00
2018-01-21T06:22:51.575Z,70.80
2018-01-21T06:25:19.850Z,71.30
2018-01-21T06:27:48.134Z,71.00
2018-01-21T06:30:16.363Z,70.90
2018-01-21T06:32:44.606Z,71.10
2018-01-21T06:35:12.904Z,71.10
2018-01-21T06:37:41.181Z,71.20
2018-01-21T06:40:09.436Z,71.10
2018-01-21T06:42:37.680Z,70.90
2018-01-21T06:45:06.728Z,70.90
2018-01-21T06:47:34.980Z,70.90
2018-01-21T06:50:03.276Z,70.70
2018-01-21T06:52:31.586Z,70.90
2018-01-21T06:54:59.818Z,70.70
2018-01-21T06:57:28.066Z,70.90
2018-01-21T06:59:56.364Z,70.80
2018-01-21T07:02:24.612Z,70.80
2018-01-21T07:04:52.883Z,71.00
2018-01-21T07:07:21.927Z,71.10
2018-01-21T07:09:50.179Z,71.00
2018-01-21T07:12:18.439Z,71.10
2018-01-21T07:14:46.692Z,71.30
2018-01-21T07:17:15.038Z,71.50
2018-01-21T07:19:43.424Z,71.80
2018-01-21T07:22:11.721Z,70.90
2018-01-21T07:24:40.952Z,70.70
2018-01-21T07:27:09.948Z,70.80
2018-01-21T07:29:38.275Z,70.80
2018-01-21T07:32:06.554Z,70.80
2018-01-21T07:34:34.856Z,70.80
2018-01-21T07:37:03.172Z,70.60
2018-01-21T07:39:31.464Z,70.70
2018-01-21T07:41:59.771Z,70.80
2018-01-21T07:44:28.051Z,70.90
2018-01-21T07:46:56.324Z,70.70
2018-01-21T07:49:23.376Z,70.90
2018-01-21T07:51:49.726Z,70.90
2018-01-21T07:54:16.854Z,70.90
2018-01-21T07:56:43.210Z,70.80
2018-01-21T07:59:10.714Z,70.80
2018-01-21T08:01:37.057Z,70.70
2018-01-21T08:04:03.669Z,70.70
2018-01-21T08:06:30.082Z,70.80
2018-01-21T08:08:56.452Z,70.70
2018-01-21T08:11:22.970Z,70.70
2018-01-21T08:13:49.352Z,70.70
2018-01-21T08:16:15.794Z,70.50
2018-01-21T08:18:42.920Z,70.80
2018-01-21T08:21:09.994Z,70.10
2018-01-21T08:23:37.124Z,70.20
2018-01-21T08:26:03.530Z,70.10
2018-01-21T08:28:30.696Z,70.20
2018-01-21T08:30:57.074Z,70.20
2018-01-21T08:33:24.195Z,70.50
2018-01-21T08:38:53.329Z,70.50
2018-01-21T08:41:27.355Z,70.50
2018-01-21T08:43:55.639Z,70.60
2018-01-21T08:46:24.665Z,70.50
2018-01-21T08:48:53.704Z,70.50
2018-01-21T08:51:21.952Z,70.60
2018-01-21T08:53:51.178Z,70.70
2018-01-21T08:56:19.493Z,70.50
2018-01-21T08:58:48.498Z,70.70
2018-01-21T09:01:17.069Z,70.70
2018-01-21T09:03:46.053Z,70.40
2018-01-21T09:06:15.067Z,70.30
2018-01-21T09:08:43.324Z,70.30
2018-01-21T09:11:12.369Z,70.20
2018-01-21T09:13:40.675Z,70.20
2018-01-21T09:16:08.959Z,70.20
2018-01-21T09:18:37.212Z,70.40
2018-01-21T09:21:05.792Z,70.50
2018-01-21T09:23:34.073Z,70.30
2018-01-21T09:26:02.427Z,70.20
2018-01-21T09:28:31.178Z,70.10
2018-01-21T09:30:59.417Z,70.30
2018-01-21T09:33:27.662Z,70.30
2018-01-21T09:35:56.636Z,70.00
2018-01-21T09:38:26.815Z,70.10
2018-01-21T09:40:55.139Z,70.10
2018-01-21T09:43:24.143Z,69.80
2018-01-21T09:45:53.267Z,69.80
2018-01-21T09:48:22.446Z,70.20
2018-01-21T09:50:50.672Z,70.20
2018-01-21T09:53:18.991Z,70.10
2018-01-21T09:55:47.225Z,70.10
2018-01-21T09:58:15.466Z,70.00
2018-01-21T10:00:43.721Z,69.80
2018-01-21T10:03:11.957Z,70.00
2018-01-21T10:05:40.266Z,70.80
2018-01-21T10:08:08.830Z,70.00
2018-01-21T10:10:38.005Z,70.10
2018-01-21T10:13:06.283Z,70.20
2018-01-21T10:15:34.529Z,69.80
2018-01-21T10:18:02.829Z,69.70
2018-01-21T10:20:31.052Z,69.50
2018-01-21T10:23:00.115Z,69.10
2018-01-21T10:25:28.405Z,69.10
2018-01-21T10:27:57.233Z,69.60
2018-01-21T10:30:25.482Z,69.40
2018-01-21T10:32:54.508Z,69.20
2018-01-21T10:35:22.779Z,69.10
2018-01-21T10:37:51.008Z,69.30
2018-01-21T10:40:19.308Z,69.40
2018-01-21T10:42:48.396Z,69.20
2018-01-21T10:45:16.687Z,69.20
2018-01-21T10:47:45.722Z,69.30
2018-01-21T10:50:13.951Z,69.20
2018-01-21T10:52:42.965Z,69.70
2018-01-21T10:55:11.266Z,69.60
2018-01-21T10:57:39.556Z,69.60
2018-01-21T11:00:07.839Z,69.60
2018-01-21T11:02:36.102Z,69.50
2018-01-21T11:05:04.388Z,68.90
2018-01-21T11:07:32.616Z,68.80
2018-01-21T11:10:01.627Z,69.20
2018-01-21T11:12:29.865Z,69.20
2018-01-21T11:14:58.168Z,68.90
2018-01-21T11:17:27.180Z,69.70
2018-01-21T11:19:55.464Z,69.60
2018-01-21T11:22:23.702Z,69.50
2018-01-21T11:24:52.748Z,69.40
2018-01-21T11:27:21.064Z,69.40
2018-01-21T11:29:49.297Z,69.20
2018-01-21T11:32:17.559Z,69.10
2018-01-21T11:34:45.842Z,69.20
2018-01-21T11:37:15.038Z,68.90
2018-01-21T11:39:43.297Z,69.10
2018-01-21T11:42:11.573Z,68.90
2018-01-21T11:44:39.844Z,69.00
2018-01-21T11:47:10.800Z,68.50
2018-01-21T11:49:37.141Z,68.50
2018-01-21T11:52:05.439Z,68.80
2018-01-21T11:54:33.677Z,68.80
2018-01-21T11:57:01.982Z,68.70
2018-01-21T11:59:30.251Z,68.90
2018-01-21T12:01:58.516Z,68.90
2018-01-21T12:04:26.809Z,69.00
2018-01-21T12:06:55.071Z,69.10
2018-01-21T12:09:23.474Z,69.00
2018-01-21T12:11:52.299Z,68.80
2018-01-21T12:14:20.559Z,69.00
2018-01-21T12:16:48.797Z,69.20
2018-01-21T12:19:17.119Z,69.30
2018-01-21T12:21:46.757Z,69.40
2018-01-21T12:24:16.143Z,69.60
2018-01-21T12:26:44.879Z,69.60
2018-01-21T12:29:13.171Z,70.00
2018-01-21T12:31:41.456Z,69.90
2018-01-21T12:34:09.726Z,69.80
2018-01-21T12:36:38.066Z,70.00
2018-01-21T12:39:07.071Z,70.00
2018-01-21T12:41:35.329Z,70.00
2018-01-21T12:44:04.688Z,69.60
2018-01-21T12:46:34.464Z,69.60
2018-01-21T12:49:02.765Z,68.80
2018-01-21T12:51:30.993Z,68.80
2018-01-21T12:54:00.025Z,68.60
2018-01-21T12:56:28.978Z,68.60
2018-01-21T12:58:58.039Z,69.20
2018-01-21T13:01:26.285Z,69.20
2018-01-21T13:03:54.901Z,69.10
2018-01-21T13:06:23.212Z,68.50
2018-01-21T13:08:51.467Z,68.60
2018-01-21T13:11:20.682Z,68.20
2018-01-21T13:13:48.940Z,68.90
2018-01-21T13:16:17.243Z,68.40
2018-01-21T13:18:45.540Z,68.60
2018-01-21T13:21:13.770Z,68.30
2018-01-21T13:23:42.090Z,68.30
2018-01-21T13:26:11.089Z,69.00
2018-01-21T13:28:39.451Z,69.00
2018-01-21T13:31:07.728Z,68.70
2018-01-21T13:33:36.737Z,68.30
2018-01-21T13:36:05.818Z,67.80
2018-01-21T13:38:34.864Z,68.10
2018-01-21T13:41:03.632Z,68.10
2018-01-21T13:43:31.909Z,68.30
2018-01-21T13:46:00.215Z,68.40
2018-01-21T13:48:28.499Z,67.90
2018-01-21T13:50:56.767Z,67.60
2018-01-21T13:53:25.059Z,68.10
2018-01-21T13:55:53.279Z,67.60
2018-01-21T13:58:21.540Z,67.10
2018-01-21T14:00:50.555Z,67.40
2018-01-21T14:03:19.703Z,66.80
2018-01-21T14:05:47.977Z,66.80
2018-01-21T14:08:16.255Z,67.40
2018-01-21T14:10:44.538Z,68.00
2018-01-21T14:13:12.818Z,67.00
2018-01-21T14:15:41.982Z,67.40
2018-01-21T14:18:10.254Z,68.10
2018-01-21T14:20:38.571Z,67.10
2018-01-21T14:23:06.874Z,67.40
2018-01-21T14:25:35.931Z,67.90
2018-01-21T14:28:04.255Z,67.90
2018-01-21T14:30:33.404Z,67.40
2018-01-21T14:33:01.645Z,67.40
2018-01-21T14:35:29.918Z,67.30
2018-01-21T14:37:58.182Z,67.20
2018-01-21T14:40:27.231Z,67.60
2018-01-21T14:42:55.658Z,67.60
2018-01-21T14:45:24.707Z,67.80
2018-01-21T14:47:52.980Z,67.80
2018-01-21T14:50:21.228Z,67.50
2018-01-21T14:52:49.511Z,67.70
2018-01-21T14:55:18.121Z,67.30
2018-01-21T14:57:46.418Z,67.50
2018-01-21T15:00:15.169Z,67.20
2018-01-21T15:02:43.461Z,67.50
2018-01-21T15:05:11.800Z,68.20
2018-01-21T15:07:41.460Z,67.50
2018-01-21T15:10:09.740Z,67.40
2018-01-21T15:12:38.639Z,67.70
2018-01-21T15:15:07.434Z,67.80
2018-01-21T15:17:35.701Z,68.00
2018-01-21T15:20:03.968Z,67.90
2018-01-21T15:22:33.093Z,68.10
2018-01-21T15:25:01.965Z,68.10
2018-01-21T15:27:30.246Z,68.10
2018-01-21T15:29:58.562Z,68.20
2018-01-21T15:32:28.559Z,68.20
2018-01-21T15:34:56.880Z,68.10
2018-01-21T15:37:26.142Z,68.20
2018-01-21T15:39:55.211Z,68.30
2018-01-21T15:42:25.007Z,68.80
2018-01-21T15:44:53.296Z,68.40
2018-01-21T15:47:21.551Z,68.30
2018-01-21T15:49:49.906Z,68.60
2018-01-21T15:52:18.218Z,69.00
2018-01-21T15:54:46.490Z,68.80
2018-01-21T15:57:14.800Z,69.00
2018-01-21T15:59:43.136Z,68.90
2018-01-21T16:02:11.392Z,69.00
2018-01-21T16:04:40.383Z,69.20
2018-01-21T16:07:08.690Z,69.20
2018-01-21T16:09:36.989Z,69.00
2018-01-21T16:12:06.144Z,69.10
2018-01-21T16:14:34.438Z,68.80
2018-01-21T16:17:02.726Z,68.90
2018-01-21T16:19:31.019Z,68.80
2018-01-21T16:21:59.274Z,68.90
2018-01-21T16:24:27.536Z,69.10
2018-01-21T16:26:55.825Z,69.10
2018-01-21T16:29:24.135Z,68.90
2018-01-21T16:31:52.382Z,69.00
2018-01-21T16:34:20.714Z,69.20
2018-01-21T16:36:49.727Z,69.30
2018-01-21T16:39:18.729Z,69.30
2018-01-21T16:41:47.042Z,69.20
2018-01-21T16:44:15.331Z,69.90
2018-01-21T16:46:43.615Z,70.00
2018-01-21T16:49:11.850Z,70.00
2018-01-21T16:51:40.128Z,70.30
2018-01-21T16:54:08.380Z,69.90
2018-01-21T16:56:37.416Z,69.60
2018-01-21T16:59:05.792Z,69.60
2018-01-21T17:01:34.833Z,69.80
2018-01-21T17:04:03.929Z,69.90
2018-01-21T17:06:32.933Z,70.20
2018-01-21T17:09:01.937Z,69.90
2018-01-21T17:11:30.189Z,70.00
2018-01-21T17:13:59.241Z,69.80
2018-01-21T17:16:27.494Z,69.70
2018-01-21T17:18:55.728Z,69.90
2018-01-21T17:21:24.001Z,70.10
2018-01-21T17:23:52.314Z,70.10
2018-01-21T17:26:21.323Z,70.00
2018-01-21T17:28:49.628Z,69.90
2018-01-21T17:31:18.638Z,70.20
2018-01-21T17:33:46.926Z,70.20
2018-01-21T17:36:15.225Z,70.00
2018-01-21T17:38:44.279Z,70.10
2018-01-21T17:41:12.501Z,70.00
2018-01-21T17:43:41.557Z,69.60
2018-01-21T17:46:09.871Z,70.20
2018-01-21T17:48:38.111Z,69.80
2018-01-21T17:51:06.391Z,70.10
2018-01-21T17:53:34.623Z,70.10
2018-01-21T17:56:02.926Z,70.20
2018-01-21T17:58:31.940Z,70.20
2018-01-21T18:01:00.177Z,70.30
2018-01-21T18:03:28.459Z,70.30
2018-01-21T18:05:56.696Z,70.20
2018-01-21T18:08:25.702Z,70.20
2018-01-21T18:10:53.996Z,70.20
2018-01-21T18:13:22.272Z,70.10
2018-01-21T18:15:50.521Z,70.00
2018-01-21T18:18:19.507Z,70.10
2018-01-21T18:20:48.556Z,70.40
2018-01-21T18:23:16.837Z,70.40
2018-01-21T18:25:45.093Z,70.50
2018-01-21T18:28:13.360Z,70.20
2018-01-21T18:30:41.600Z,70.30
2018-01-21T18:33:11.084Z,70.70
2018-01-21T18:35:39.369Z,70.40
2018-01-21T18:38:07.601Z,70.70
2018-01-21T18:40:35.897Z,70.30
2018-01-21T18:43:04.144Z,70.20
2018-01-21T18:45:32.396Z,70.50
2018-01-21T18:48:00.641Z,70.40
2018-01-21T18:50:28.874Z,70.30
2018-01-21T18:52:57.139Z,70.20
2018-01-21T18:55:25.397Z,70.30
2018-01-21T18:57:53.674Z,70.50
2018-01-21T19:00:21.919Z,71.10
2018-01-21T19:02:50.223Z,70.00
2018-01-21T19:05:18.498Z,70.00
2018-01-21T19:07:46.770Z,70.00
2018-01-21T19:10:15.048Z,69.70
2018-01-21T19:12:43.313Z,70.00
2018-01-21T19:15:11.596Z,70.10
2018-01-21T19:17:39.823Z,69.80
2018-01-21T19:20:08.080Z,69.60
2018-01-21T19:22:37.093Z,69.70
2018-01-21T19:25:05.349Z,69.50
2018-01-21T19:27:34.350Z,69.80
2018-01-21T19:30:04.412Z,69.50
2018-01-21T19:32:32.692Z,69.50
2018-01-21T19:35:00.941Z,69.80
2018-01-21T19:37:29.218Z,69.90
2018-01-21T19:40:17.199Z,70.30
2018-01-21T19:42:45.540Z,70.20
2018-01-21T19:45:13.800Z,70.30
2018-01-21T19:47:42.840Z,70.30
2018-01-21T19:50:11.081Z,70.20
2018-01-21T19:52:39.365Z,70.30
2018-01-21T19:55:07.641Z,70.00
2018-01-21T19:57:36.352Z,70.30
2018-01-21T20:00:05.412Z,70.60
2018-01-21T20:02:34.423Z,71.10
2018-01-21T20:05:02.694Z,71.10
2018-01-21T20:07:30.945Z,71.40
2018-01-21T20:09:59.980Z,70.90
2018-01-21T20:12:28.269Z,70.90
2018-01-21T20:14:56.544Z,70.80
2018-01-21T20:17:24.813Z,70.60
2018-01-21T20:19:53.128Z,70.30
2018-01-21T20:22:21.357Z,70.10
2018-01-21T20:24:49.672Z,70.40
2018-01-21T20:27:17.957Z,70.70
2018-01-21T20:29:46.190Z,71.20
2018-01-21T20:32:14.493Z,71.20
2018-01-21T20:34:42.733Z,71.40
2018-01-21T20:37:11.034Z,71.10
2018-01-21T20:39:39.310Z,71.20
2018-01-21T20:42:07.598Z,71.00
2018-01-21T20:44:35.887Z,70.70
2018-01-21T20:47:04.167Z,70.50
2018-01-21T20:49:32.489Z,70.40
2018-01-21T20:52:07.258Z,70.00
2018-01-21T20:54:41.364Z,70.00
2018-01-21T20:57:09.633Z,70.00
2018-01-21T20:59:37.915Z,70.30
2018-01-21T21:02:06.203Z,70.40
2018-01-21T21:04:34.435Z,70.50
2018-01-21T21:07:02.726Z,70.50
2018-01-21T21:09:31.024Z,70.20
2018-01-21T21:11:59.317Z,70.30
2018-01-21T21:14:27.606Z,70.10
2018-01-21T21:16:55.878Z,70.10
2018-01-21T21:19:24.185Z,70.20
2018-01-21T21:21:52.430Z,70.00
2018-01-21T21:24:21.603Z,70.40
2018-01-21T21:26:50.559Z,70.50
2018-01-21T21:29:19.556Z,70.20
2018-01-21T21:31:48.643Z,70.00
2018-01-21T21:34:17.200Z,70.00
2018-01-21T21:36:45.824Z,70.00
2018-01-21T21:39:14.825Z,70.00
2018-01-21T21:41:43.131Z,70.00
2018-01-21T21:44:11.368Z,69.80
2018-01-21T21:46:40.407Z,69.80
2018-01-21T21:49:08.731Z,69.80
2018-01-21T21:51:37.019Z,70.30
2018-01-21T21:54:06.082Z,70.10
2018-01-21T21:56:34.464Z,70.00
2018-01-21T21:59:02.736Z,70.30
2018-01-21T22:01:31.026Z,70.00
2018-01-21T22:03:59.325Z,70.40
2018-01-21T22:06:28.379Z,70.50
2018-01-21T22:08:56.663Z,70.40
2018-01-21T22:11:24.902Z,70.30
2018-01-21T22:13:53.914Z,70.90
2018-01-21T22:16:23.229Z,70.20
2018-01-21T22:18:51.551Z,70.30
2018-01-21T22:21:20.553Z,70.60
2018-01-21T22:23:48.817Z,70.50
2018-01-21T22:26:17.829Z,70.00
2018-01-21T22:28:46.065Z,69.90
2018-01-21T22:31:14.375Z,70.00
2018-01-21T22:33:43.416Z,70.10
2018-01-21T22:36:11.681Z,70.10
2018-01-21T22:38:39.981Z,70.60
2018-01-21T22:41:08.216Z,70.40
2018-01-21T22:43:36.517Z,70.70
2018-01-21T22:46:04.760Z,70.50
2018-01-21T22:48:33.086Z,70.60
2018-01-21T22:51:01.392Z,70.40
2018-01-21T22:53:30.390Z,71.00
2018-01-21T22:55:59.461Z,70.50
2018-01-21T22:58:27.734Z,70.40
2018-01-21T23:00:56.837Z,70.20
2018-01-21T23:03:25.108Z,70.30
2018-01-21T23:05:53.345Z,70.10
2018-01-21T23:08:21.646Z,69.90
2018-01-21T23:10:49.922Z,69.90
2018-01-21T23:13:18.181Z,70.00
2018-01-21T23:15:46.456Z,69.60
2018-01-21T23:18:14.735Z,70.10
2018-01-21T23:20:54.825Z,70.00
2018-01-21T23:23:23.074Z,70.10
2018-01-21T23:25:51.359Z,70.10
2018-01-21T23:28:19.613Z,70.50
2018-01-21T23:30:47.893Z,70.30
2018-01-21T23:33:16.151Z,70.00
2018-01-21T23:35:45.152Z,69.80
2018-01-21T23:38:13.459Z,69.80
2018-01-21T23:40:41.705Z,70.10
2018-01-21T23:43:09.983Z,70.30
2018-01-21T23:45:38.274Z,70.20
2018-01-21T23:48:06.538Z,69.90
2018-01-21T23:50:34.854Z,70.40
2018-01-21T23:53:03.122Z,70.20
2018-01-21T23:55:31.396Z,70.00
2018-01-21T23:57:59.638Z,70.20
